sensor_id;sensor_type;location;lat;lon;timestamp;P1;durP1;ratioP1;P2;durP2;ratioP2
22715;SDS011;11525;51.152;4.456;2023-10-13T00:01:55;10.27;;;4.43;;
22715;SDS011;11525;51.152;4.456;2023-10-13T00:04:24;9.88;;;4.57;;
22715;SDS011;11525;51.152;4.456;2023-10-13T00:06:56;10.15;;;4.68;;
22715;SDS011;11525;51.152;4.456;2023-10-13T00:09:22;9.10;;;4.68;;
22715;SDS011;11525;51.152;4.456;2023-10-13T00:11:57;9.80;;;4.38;;
22715;SDS011;11525;51.152;4.456;2023-10-13T00:14:23;12.30;;;4.88;;
22715;SDS011;11525;51.152;4.456;2023-10-13T00:16:57;10.85;;;4.60;;
22715;SDS011;11525;51.152;4.456;2023-10-13T00:19:29;10.68;;;4.75;;
22715;SDS011;11525;51.152;4.456;2023-10-13T00:22:11;11.38;;;6.18;;
22715;SDS011;11525;51.152;4.456;2023-10-13T00:24:38;11.18;;;6.00;;
22715;SDS011;11525;51.152;4.456;2023-10-13T00:27:17;12.48;;;5.93;;
22715;SDS011;11525;51.152;4.456;2023-10-13T00:29:56;9.15;;;5.28;;
22715;SDS011;11525;51.152;4.456;2023-10-13T00:32:42;10.88;;;5.97;;
22715;SDS011;11525;51.152;4.456;2023-10-13T00:35:17;11.85;;;6.15;;
22715;SDS011;11525;51.152;4.456;2023-10-13T00:38:00;9.57;;;5.93;;
22715;SDS011;11525;51.152;4.456;2023-10-13T00:40:41;11.18;;;6.05;;
22715;SDS011;11525;51.152;4.456;2023-10-13T00:43:16;13.20;;;6.85;;
22715;SDS011;11525;51.152;4.456;2023-10-13T00:45:44;13.60;;;6.85;;
22715;SDS011;11525;51.152;4.456;2023-10-13T00:48:20;8.57;;;5.97;;
22715;SDS011;11525;51.152;4.456;2023-10-13T00:50:54;15.13;;;6.65;;
22715;SDS011;11525;51.152;4.456;2023-10-13T00:53:28;12.68;;;6.85;;
22715;SDS011;11525;51.152;4.456;2023-10-13T00:56:05;12.45;;;6.13;;
22715;SDS011;11525;51.152;4.456;2023-10-13T00:58:35;13.15;;;6.68;;
22715;SDS011;11525;51.152;4.456;2023-10-13T01:01:05;10.13;;;6.03;;
22715;SDS011;11525;51.152;4.456;2023-10-13T01:03:53;13.73;;;6.38;;
22715;SDS011;11525;51.152;4.456;2023-10-13T01:06:24;15.38;;;7.10;;
22715;SDS011;11525;51.152;4.456;2023-10-13T01:11:25;10.70;;;6.20;;
22715;SDS011;11525;51.152;4.456;2023-10-13T01:13:52;12.25;;;6.80;;
22715;SDS011;11525;51.152;4.456;2023-10-13T01:16:19;12.52;;;6.28;;
22715;SDS011;11525;51.152;4.456;2023-10-13T01:18:49;8.50;;;6.43;;
22715;SDS011;11525;51.152;4.456;2023-10-13T01:21:15;16.83;;;6.28;;
22715;SDS011;11525;51.152;4.456;2023-10-13T01:23:45;9.15;;;6.70;;
22715;SDS011;11525;51.152;4.456;2023-10-13T01:26:12;14.65;;;6.72;;
22715;SDS011;11525;51.152;4.456;2023-10-13T01:28:42;13.70;;;6.53;;
22715;SDS011;11525;51.152;4.456;2023-10-13T01:31:12;11.07;;;5.97;;
22715;SDS011;11525;51.152;4.456;2023-10-13T01:33:41;16.25;;;6.47;;
22715;SDS011;11525;51.152;4.456;2023-10-13T01:36:07;13.82;;;6.35;;
22715;SDS011;11525;51.152;4.456;2023-10-13T01:38:33;11.00;;;6.32;;
22715;SDS011;11525;51.152;4.456;2023-10-13T01:40:58;10.65;;;7.22;;
22715;SDS011;11525;51.152;4.456;2023-10-13T01:43:24;11.65;;;7.95;;
22715;SDS011;11525;51.152;4.456;2023-10-13T01:45:50;14.30;;;8.70;;
22715;SDS011;11525;51.152;4.456;2023-10-13T01:48:16;12.27;;;8.23;;
22715;SDS011;11525;51.152;4.456;2023-10-13T01:50:46;12.32;;;8.15;;
22715;SDS011;11525;51.152;4.456;2023-10-13T01:53:13;15.52;;;9.30;;
22715;SDS011;11525;51.152;4.456;2023-10-13T01:55:42;17.90;;;10.15;;
22715;SDS011;11525;51.152;4.456;2023-10-13T01:58:09;19.58;;;11.57;;
22715;SDS011;11525;51.152;4.456;2023-10-13T02:00:43;18.98;;;12.88;;
22715;SDS011;11525;51.152;4.456;2023-10-13T02:03:11;19.10;;;12.45;;
22715;SDS011;11525;51.152;4.456;2023-10-13T02:05:41;23.15;;;13.48;;
22715;SDS011;11525;51.152;4.456;2023-10-13T02:08:16;23.77;;;13.57;;
22715;SDS011;11525;51.152;4.456;2023-10-13T02:10:50;21.80;;;15.38;;
22715;SDS011;11525;51.152;4.456;2023-10-13T02:13:21;24.40;;;16.25;;
22715;SDS011;11525;51.152;4.456;2023-10-13T02:15:48;23.58;;;16.58;;
22715;SDS011;11525;51.152;4.456;2023-10-13T02:18:17;26.38;;;16.95;;
22715;SDS011;11525;51.152;4.456;2023-10-13T02:21:02;24.33;;;16.65;;
22715;SDS011;11525;51.152;4.456;2023-10-13T02:23:37;30.75;;;18.23;;
22715;SDS011;11525;51.152;4.456;2023-10-13T02:26:11;25.52;;;19.05;;
22715;SDS011;11525;51.152;4.456;2023-10-13T02:28:41;33.65;;;21.08;;
22715;SDS011;11525;51.152;4.456;2023-10-13T02:31:09;30.20;;;20.95;;
22715;SDS011;11525;51.152;4.456;2023-10-13T02:33:36;33.90;;;22.02;;
22715;SDS011;11525;51.152;4.456;2023-10-13T02:36:09;36.60;;;23.17;;
22715;SDS011;11525;51.152;4.456;2023-10-13T02:38:45;35.03;;;23.00;;
22715;SDS011;11525;51.152;4.456;2023-10-13T02:41:12;39.00;;;25.17;;
22715;SDS011;11525;51.152;4.456;2023-10-13T02:43:50;37.92;;;25.00;;
22715;SDS011;11525;51.152;4.456;2023-10-13T02:46:17;41.92;;;26.10;;
22715;SDS011;11525;51.152;4.456;2023-10-13T02:48:42;44.05;;;28.13;;
22715;SDS011;11525;51.152;4.456;2023-10-13T02:51:11;46.17;;;29.52;;
22715;SDS011;11525;51.152;4.456;2023-10-13T02:53:43;56.22;;;31.85;;
22715;SDS011;11525;51.152;4.456;2023-10-13T02:56:13;46.08;;;29.20;;
22715;SDS011;11525;51.152;4.456;2023-10-13T02:58:40;54.53;;;31.55;;
22715;SDS011;11525;51.152;4.456;2023-10-13T03:01:10;51.70;;;31.80;;
22715;SDS011;11525;51.152;4.456;2023-10-13T03:03:49;52.10;;;31.65;;
22715;SDS011;11525;51.152;4.456;2023-10-13T03:06:19;55.58;;;32.72;;
22715;SDS011;11525;51.152;4.456;2023-10-13T03:08:56;51.28;;;31.13;;
22715;SDS011;11525;51.152;4.456;2023-10-13T03:11:25;51.33;;;31.33;;
22715;SDS011;11525;51.152;4.456;2023-10-13T03:13:51;54.17;;;31.00;;
22715;SDS011;11525;51.152;4.456;2023-10-13T03:16:17;47.72;;;29.83;;
22715;SDS011;11525;51.152;4.456;2023-10-13T03:18:44;42.70;;;28.63;;
22715;SDS011;11525;51.152;4.456;2023-10-13T03:21:21;47.70;;;28.58;;
22715;SDS011;11525;51.152;4.456;2023-10-13T03:23:55;52.50;;;29.40;;
22715;SDS011;11525;51.152;4.456;2023-10-13T03:26:31;45.38;;;27.83;;
22715;SDS011;11525;51.152;4.456;2023-10-13T03:29:05;45.72;;;26.88;;
22715;SDS011;11525;51.152;4.456;2023-10-13T03:31:34;39.10;;;26.10;;
22715;SDS011;11525;51.152;4.456;2023-10-13T03:34:03;40.72;;;25.48;;
22715;SDS011;11525;51.152;4.456;2023-10-13T03:36:29;43.58;;;24.85;;
22715;SDS011;11525;51.152;4.456;2023-10-13T03:39:21;45.17;;;24.73;;
22715;SDS011;11525;51.152;4.456;2023-10-13T03:41:54;44.78;;;24.02;;
22715;SDS011;11525;51.152;4.456;2023-10-13T03:44:22;39.42;;;23.95;;
22715;SDS011;11525;51.152;4.456;2023-10-13T03:46:48;38.90;;;23.30;;
22715;SDS011;11525;51.152;4.456;2023-10-13T03:49:17;38.92;;;23.38;;
22715;SDS011;11525;51.152;4.456;2023-10-13T03:51:50;40.85;;;23.52;;
22715;SDS011;11525;51.152;4.456;2023-10-13T03:54:19;36.92;;;21.75;;
22715;SDS011;11525;51.152;4.456;2023-10-13T03:56:45;43.15;;;22.25;;
22715;SDS011;11525;51.152;4.456;2023-10-13T03:59:11;35.45;;;20.38;;
22715;SDS011;11525;51.152;4.456;2023-10-13T04:01:40;35.17;;;21.52;;
22715;SDS011;11525;51.152;4.456;2023-10-13T04:04:11;41.53;;;21.00;;
22715;SDS011;11525;51.152;4.456;2023-10-13T04:06:37;30.95;;;20.52;;
22715;SDS011;11525;51.152;4.456;2023-10-13T04:09:13;42.08;;;21.10;;
22715;SDS011;11525;51.152;4.456;2023-10-13T04:14:30;35.30;;;19.45;;
22715;SDS011;11525;51.152;4.456;2023-10-13T04:17:21;28.73;;;17.65;;
22715;SDS011;11525;51.152;4.456;2023-10-13T04:19:53;34.05;;;18.85;;
22715;SDS011;11525;51.152;4.456;2023-10-13T04:22:32;28.75;;;16.38;;
22715;SDS011;11525;51.152;4.456;2023-10-13T04:25:11;25.83;;;16.35;;
22715;SDS011;11525;51.152;4.456;2023-10-13T04:27:56;26.45;;;16.58;;
22715;SDS011;11525;51.152;4.456;2023-10-13T04:30:37;24.42;;;15.35;;
22715;SDS011;11525;51.152;4.456;2023-10-13T04:36:03;31.25;;;14.85;;
22715;SDS011;11525;51.152;4.456;2023-10-13T04:38:39;22.73;;;13.90;;
22715;SDS011;11525;51.152;4.456;2023-10-13T04:41:36;32.40;;;13.63;;
22715;SDS011;11525;51.152;4.456;2023-10-13T04:44:16;21.92;;;13.20;;
22715;SDS011;11525;51.152;4.456;2023-10-13T04:47:01;23.77;;;13.77;;
22715;SDS011;11525;51.152;4.456;2023-10-13T04:49:27;26.92;;;14.68;;
22715;SDS011;11525;51.152;4.456;2023-10-13T04:52:01;25.92;;;13.27;;
22715;SDS011;11525;51.152;4.456;2023-10-13T04:54:37;22.80;;;13.68;;
22715;SDS011;11525;51.152;4.456;2023-10-13T04:57:13;22.27;;;14.15;;
22715;SDS011;11525;51.152;4.456;2023-10-13T04:59:49;24.98;;;14.82;;
22715;SDS011;11525;51.152;4.456;2023-10-13T05:02:33;23.42;;;13.65;;
22715;SDS011;11525;51.152;4.456;2023-10-13T05:05:03;32.22;;;14.55;;
22715;SDS011;11525;51.152;4.456;2023-10-13T05:07:38;21.85;;;14.18;;
22715;SDS011;11525;51.152;4.456;2023-10-13T05:10:23;25.10;;;13.93;;
22715;SDS011;11525;51.152;4.456;2023-10-13T05:13:07;21.75;;;13.02;;
22715;SDS011;11525;51.152;4.456;2023-10-13T05:15:51;23.20;;;13.27;;
22715;SDS011;11525;51.152;4.456;2023-10-13T05:18:35;27.73;;;13.38;;
22715;SDS011;11525;51.152;4.456;2023-10-13T05:21:20;27.67;;;12.48;;
22715;SDS011;11525;51.152;4.456;2023-10-13T05:24:04;24.00;;;12.68;;
22715;SDS011;11525;51.152;4.456;2023-10-13T05:26:49;23.75;;;13.48;;
22715;SDS011;11525;51.152;4.456;2023-10-13T05:29:34;28.70;;;12.25;;
22715;SDS011;11525;51.152;4.456;2023-10-13T05:32:23;33.42;;;13.05;;
22715;SDS011;11525;51.152;4.456;2023-10-13T05:35:07;31.70;;;13.35;;
22715;SDS011;11525;51.152;4.456;2023-10-13T05:37:52;31.35;;;12.40;;
22715;SDS011;11525;51.152;4.456;2023-10-13T05:40:36;29.48;;;12.60;;
22715;SDS011;11525;51.152;4.456;2023-10-13T05:43:20;25.95;;;11.95;;
22715;SDS011;11525;51.152;4.456;2023-10-13T05:46:04;22.42;;;12.88;;
22715;SDS011;11525;51.152;4.456;2023-10-13T05:49:06;32.05;;;13.02;;
22715;SDS011;11525;51.152;4.456;2023-10-13T05:51:42;25.58;;;12.90;;
22715;SDS011;11525;51.152;4.456;2023-10-13T05:54:17;30.23;;;12.73;;
22715;SDS011;11525;51.152;4.456;2023-10-13T05:56:49;25.45;;;12.55;;
22715;SDS011;11525;51.152;4.456;2023-10-13T05:59:35;24.10;;;12.88;;
22715;SDS011;11525;51.152;4.456;2023-10-13T06:02:21;25.73;;;12.80;;
22715;SDS011;11525;51.152;4.456;2023-10-13T06:05:06;32.75;;;14.38;;
22715;SDS011;11525;51.152;4.456;2023-10-13T06:07:51;30.35;;;13.85;;
22715;SDS011;11525;51.152;4.456;2023-10-13T06:10:36;33.78;;;13.82;;
22715;SDS011;11525;51.152;4.456;2023-10-13T06:13:21;28.40;;;13.18;;
22715;SDS011;11525;51.152;4.456;2023-10-13T06:18:53;27.02;;;12.57;;
22715;SDS011;11525;51.152;4.456;2023-10-13T06:21:38;29.10;;;12.52;;
22715;SDS011;11525;51.152;4.456;2023-10-13T06:24:22;30.02;;;13.27;;
22715;SDS011;11525;51.152;4.456;2023-10-13T06:27:06;35.38;;;12.95;;
22715;SDS011;11525;51.152;4.456;2023-10-13T06:29:50;22.52;;;11.48;;
22715;SDS011;11525;51.152;4.456;2023-10-13T06:32:18;25.23;;;11.20;;
22715;SDS011;11525;51.152;4.456;2023-10-13T06:34:44;30.70;;;11.43;;
22715;SDS011;11525;51.152;4.456;2023-10-13T06:37:11;30.20;;;11.00;;
22715;SDS011;11525;51.152;4.456;2023-10-13T06:39:56;21.33;;;10.15;;
22715;SDS011;11525;51.152;4.456;2023-10-13T06:42:24;30.38;;;10.57;;
22715;SDS011;11525;51.152;4.456;2023-10-13T06:44:53;25.27;;;10.10;;
22715;SDS011;11525;51.152;4.456;2023-10-13T06:47:20;25.33;;;10.07;;
22715;SDS011;11525;51.152;4.456;2023-10-13T06:49:46;17.75;;;9.10;;
22715;SDS011;11525;51.152;4.456;2023-10-13T06:52:16;20.65;;;8.70;;
22715;SDS011;11525;51.152;4.456;2023-10-13T06:54:42;25.27;;;10.55;;
22715;SDS011;11525;51.152;4.456;2023-10-13T06:57:09;24.63;;;8.77;;
22715;SDS011;11525;51.152;4.456;2023-10-13T06:59:45;21.45;;;8.52;;
22715;SDS011;11525;51.152;4.456;2023-10-13T07:02:11;21.40;;;8.82;;
22715;SDS011;11525;51.152;4.456;2023-10-13T07:04:46;22.15;;;8.60;;
22715;SDS011;11525;51.152;4.456;2023-10-13T07:07:12;25.15;;;7.97;;
22715;SDS011;11525;51.152;4.456;2023-10-13T07:09:40;17.27;;;8.15;;
22715;SDS011;11525;51.152;4.456;2023-10-13T07:12:20;20.23;;;9.15;;
22715;SDS011;11525;51.152;4.456;2023-10-13T07:14:52;19.67;;;7.93;;
22715;SDS011;11525;51.152;4.456;2023-10-13T07:17:28;17.52;;;7.80;;
22715;SDS011;11525;51.152;4.456;2023-10-13T07:19:58;17.98;;;8.10;;
22715;SDS011;11525;51.152;4.456;2023-10-13T07:23:02;24.92;;;8.45;;
22715;SDS011;11525;51.152;4.456;2023-10-13T07:25:28;23.48;;;8.32;;
22715;SDS011;11525;51.152;4.456;2023-10-13T07:27:58;26.85;;;7.60;;
22715;SDS011;11525;51.152;4.456;2023-10-13T07:30:25;18.67;;;7.97;;
22715;SDS011;11525;51.152;4.456;2023-10-13T07:32:52;23.67;;;8.25;;
22715;SDS011;11525;51.152;4.456;2023-10-13T07:35:24;17.73;;;7.72;;
22715;SDS011;11525;51.152;4.456;2023-10-13T07:37:52;19.77;;;7.65;;
22715;SDS011;11525;51.152;4.456;2023-10-13T07:40:18;19.92;;;7.70;;
22715;SDS011;11525;51.152;4.456;2023-10-13T07:42:51;18.83;;;7.53;;
22715;SDS011;11525;51.152;4.456;2023-10-13T07:45:28;21.58;;;8.13;;
22715;SDS011;11525;51.152;4.456;2023-10-13T07:50:37;14.93;;;7.53;;
22715;SDS011;11525;51.152;4.456;2023-10-13T07:53:04;16.52;;;6.88;;
22715;SDS011;11525;51.152;4.456;2023-10-13T07:55:47;22.48;;;7.55;;
22715;SDS011;11525;51.152;4.456;2023-10-13T07:58:27;20.85;;;7.72;;
22715;SDS011;11525;51.152;4.456;2023-10-13T08:00:56;22.17;;;7.35;;
22715;SDS011;11525;51.152;4.456;2023-10-13T08:03:41;19.05;;;7.70;;
22715;SDS011;11525;51.152;4.456;2023-10-13T08:06:14;22.25;;;6.68;;
22715;SDS011;11525;51.152;4.456;2023-10-13T08:08:41;17.35;;;7.80;;
22715;SDS011;11525;51.152;4.456;2023-10-13T08:11:12;14.23;;;6.97;;
22715;SDS011;11525;51.152;4.456;2023-10-13T08:13:51;19.23;;;7.60;;
22715;SDS011;11525;51.152;4.456;2023-10-13T08:16:35;18.63;;;7.55;;
22715;SDS011;11525;51.152;4.456;2023-10-13T08:19:23;21.23;;;7.95;;
22715;SDS011;11525;51.152;4.456;2023-10-13T08:21:57;24.95;;;8.77;;
22715;SDS011;11525;51.152;4.456;2023-10-13T08:24:26;18.60;;;6.82;;
22715;SDS011;11525;51.152;4.456;2023-10-13T08:27:01;18.92;;;7.65;;
22715;SDS011;11525;51.152;4.456;2023-10-13T08:29:46;21.33;;;8.25;;
22715;SDS011;11525;51.152;4.456;2023-10-13T08:32:21;18.00;;;7.65;;
22715;SDS011;11525;51.152;4.456;2023-10-13T08:34:53;29.17;;;8.40;;
22715;SDS011;11525;51.152;4.456;2023-10-13T08:37:23;16.80;;;7.57;;
22715;SDS011;11525;51.152;4.456;2023-10-13T08:39:49;16.73;;;6.68;;
22715;SDS011;11525;51.152;4.456;2023-10-13T08:42:30;20.95;;;7.68;;
22715;SDS011;11525;51.152;4.456;2023-10-13T08:45:09;21.02;;;7.22;;
22715;SDS011;11525;51.152;4.456;2023-10-13T08:47:48;19.10;;;7.72;;
22715;SDS011;11525;51.152;4.456;2023-10-13T08:58:26;18.33;;;6.65;;
22715;SDS011;11525;51.152;4.456;2023-10-13T09:01:12;15.55;;;6.55;;
22715;SDS011;11525;51.152;4.456;2023-10-13T09:03:39;21.13;;;6.40;;
22715;SDS011;11525;51.152;4.456;2023-10-13T09:06:12;23.80;;;6.60;;
22715;SDS011;11525;51.152;4.456;2023-10-13T09:08:45;17.08;;;6.53;;
22715;SDS011;11525;51.152;4.456;2023-10-13T09:11:33;20.58;;;7.47;;
22715;SDS011;11525;51.152;4.456;2023-10-13T09:14:14;20.73;;;6.60;;
22715;SDS011;11525;51.152;4.456;2023-10-13T09:17:01;17.65;;;5.93;;
22715;SDS011;11525;51.152;4.456;2023-10-13T09:19:51;15.98;;;6.97;;
22715;SDS011;11525;51.152;4.456;2023-10-13T09:22:29;16.95;;;6.68;;
22715;SDS011;11525;51.152;4.456;2023-10-13T09:25:04;20.63;;;7.32;;
22715;SDS011;11525;51.152;4.456;2023-10-13T09:27:31;17.27;;;6.70;;
22715;SDS011;11525;51.152;4.456;2023-10-13T09:30:04;24.50;;;7.22;;
22715;SDS011;11525;51.152;4.456;2023-10-13T09:32:47;20.55;;;6.32;;
22715;SDS011;11525;51.152;4.456;2023-10-13T09:35:26;20.80;;;6.72;;
22715;SDS011;11525;51.152;4.456;2023-10-13T09:37:53;14.65;;;6.55;;
22715;SDS011;11525;51.152;4.456;2023-10-13T09:40:21;19.20;;;6.95;;
22715;SDS011;11525;51.152;4.456;2023-10-13T09:42:52;22.75;;;8.27;;
22715;SDS011;11525;51.152;4.456;2023-10-13T09:45:32;21.02;;;6.65;;
22715;SDS011;11525;51.152;4.456;2023-10-13T09:48:04;19.80;;;7.40;;
22715;SDS011;11525;51.152;4.456;2023-10-13T09:50:46;14.82;;;6.93;;
22715;SDS011;11525;51.152;4.456;2023-10-13T09:53:15;19.92;;;7.40;;
22715;SDS011;11525;51.152;4.456;2023-10-13T09:55:55;17.00;;;7.38;;
22715;SDS011;11525;51.152;4.456;2023-10-13T09:58:36;15.73;;;6.43;;
22715;SDS011;11525;51.152;4.456;2023-10-13T10:01:12;18.48;;;7.40;;
22715;SDS011;11525;51.152;4.456;2023-10-13T10:03:47;18.10;;;7.68;;
22715;SDS011;11525;51.152;4.456;2023-10-13T10:06:21;17.27;;;6.97;;
22715;SDS011;11525;51.152;4.456;2023-10-13T10:09:05;15.05;;;7.05;;
22715;SDS011;11525;51.152;4.456;2023-10-13T10:19:26;17.15;;;6.85;;
22715;SDS011;11525;51.152;4.456;2023-10-13T10:22:04;21.92;;;8.73;;
22715;SDS011;11525;51.152;4.456;2023-10-13T10:24:41;21.83;;;7.03;;
22715;SDS011;11525;51.152;4.456;2023-10-13T10:27:08;18.85;;;6.97;;
22715;SDS011;11525;51.152;4.456;2023-10-13T10:29:39;19.17;;;6.10;;
22715;SDS011;11525;51.152;4.456;2023-10-13T10:32:17;23.25;;;7.03;;
22715;SDS011;11525;51.152;4.456;2023-10-13T10:34:44;23.52;;;7.30;;
22715;SDS011;11525;51.152;4.456;2023-10-13T10:37:09;24.88;;;7.63;;
22715;SDS011;11525;51.152;4.456;2023-10-13T10:39:37;23.08;;;8.27;;
22715;SDS011;11525;51.152;4.456;2023-10-13T10:42:13;18.08;;;6.85;;
22715;SDS011;11525;51.152;4.456;2023-10-13T10:44:49;20.02;;;6.82;;
22715;SDS011;11525;51.152;4.456;2023-10-13T10:47:20;16.35;;;7.25;;
22715;SDS011;11525;51.152;4.456;2023-10-13T10:50:02;25.23;;;7.60;;
22715;SDS011;11525;51.152;4.456;2023-10-13T10:52:44;16.08;;;6.60;;
22715;SDS011;11525;51.152;4.456;2023-10-13T10:55:12;26.63;;;7.50;;
22715;SDS011;11525;51.152;4.456;2023-10-13T10:57:44;16.30;;;7.10;;
22715;SDS011;11525;51.152;4.456;2023-10-13T11:00:20;19.42;;;7.38;;
22715;SDS011;11525;51.152;4.456;2023-10-13T11:02:55;22.25;;;8.20;;
22715;SDS011;11525;51.152;4.456;2023-10-13T11:05:21;22.80;;;7.97;;
22715;SDS011;11525;51.152;4.456;2023-10-13T11:07:57;25.33;;;7.25;;
22715;SDS011;11525;51.152;4.456;2023-10-13T11:10:23;20.02;;;7.10;;
22715;SDS011;11525;51.152;4.456;2023-10-13T11:15:41;29.38;;;8.45;;
22715;SDS011;11525;51.152;4.456;2023-10-13T11:18:10;28.90;;;7.32;;
22715;SDS011;11525;51.152;4.456;2023-10-13T11:20:42;26.63;;;8.45;;
22715;SDS011;11525;51.152;4.456;2023-10-13T11:23:12;21.17;;;7.18;;
22715;SDS011;11525;51.152;4.456;2023-10-13T11:25:39;25.85;;;7.68;;
22715;SDS011;11525;51.152;4.456;2023-10-13T11:28:11;15.88;;;8.10;;
22715;SDS011;11525;51.152;4.456;2023-10-13T11:31:00;21.98;;;7.07;;
22715;SDS011;11525;51.152;4.456;2023-10-13T11:33:36;23.55;;;8.27;;
22715;SDS011;11525;51.152;4.456;2023-10-13T11:36:11;17.92;;;7.57;;
22715;SDS011;11525;51.152;4.456;2023-10-13T11:38:46;31.52;;;8.95;;
22715;SDS011;11525;51.152;4.456;2023-10-13T11:41:12;27.23;;;8.63;;
22715;SDS011;11525;51.152;4.456;2023-10-13T11:43:52;23.75;;;7.57;;
22715;SDS011;11525;51.152;4.456;2023-10-13T11:46:23;19.83;;;7.68;;
22715;SDS011;11525;51.152;4.456;2023-10-13T11:49:02;23.60;;;7.75;;
22715;SDS011;11525;51.152;4.456;2023-10-13T11:51:38;22.23;;;7.70;;
22715;SDS011;11525;51.152;4.456;2023-10-13T11:54:04;22.40;;;6.68;;
22715;SDS011;11525;51.152;4.456;2023-10-13T11:56:29;19.10;;;7.05;;
22715;SDS011;11525;51.152;4.456;2023-10-13T11:58:55;18.00;;;7.65;;
22715;SDS011;11525;51.152;4.456;2023-10-13T12:01:26;21.95;;;7.55;;
22715;SDS011;11525;51.152;4.456;2023-10-13T12:04:12;27.88;;;8.30;;
22715;SDS011;11525;51.152;4.456;2023-10-13T12:06:56;22.63;;;7.95;;
22715;SDS011;11525;51.152;4.456;2023-10-13T12:09:39;20.38;;;7.28;;
22715;SDS011;11525;51.152;4.456;2023-10-13T12:12:17;19.40;;;6.90;;
22715;SDS011;11525;51.152;4.456;2023-10-13T12:14:42;23.20;;;7.22;;
22715;SDS011;11525;51.152;4.456;2023-10-13T12:17:21;17.42;;;7.80;;
22715;SDS011;11525;51.152;4.456;2023-10-13T12:19:56;17.90;;;7.05;;
22715;SDS011;11525;51.152;4.456;2023-10-13T12:22:24;18.60;;;6.65;;
22715;SDS011;11525;51.152;4.456;2023-10-13T12:24:56;20.10;;;6.75;;
22715;SDS011;11525;51.152;4.456;2023-10-13T12:27:22;12.35;;;6.78;;
22715;SDS011;11525;51.152;4.456;2023-10-13T12:29:49;22.05;;;6.32;;
22715;SDS011;11525;51.152;4.456;2023-10-13T12:32:17;16.60;;;6.53;;
22715;SDS011;11525;51.152;4.456;2023-10-13T12:34:55;22.83;;;7.43;;
22715;SDS011;11525;51.152;4.456;2023-10-13T12:37:24;16.83;;;6.88;;
22715;SDS011;11525;51.152;4.456;2023-10-13T12:40:11;15.38;;;6.03;;
22715;SDS011;11525;51.152;4.456;2023-10-13T12:42:56;22.45;;;7.78;;
22715;SDS011;11525;51.152;4.456;2023-10-13T12:45:40;18.70;;;6.93;;
22715;SDS011;11525;51.152;4.456;2023-10-13T12:48:29;20.42;;;6.57;;
22715;SDS011;11525;51.152;4.456;2023-10-13T12:51:14;16.23;;;6.20;;
22715;SDS011;11525;51.152;4.456;2023-10-13T12:53:49;22.98;;;6.95;;
22715;SDS011;11525;51.152;4.456;2023-10-13T12:56:16;18.33;;;7.63;;
22715;SDS011;11525;51.152;4.456;2023-10-13T12:58:42;32.70;;;6.82;;
22715;SDS011;11525;51.152;4.456;2023-10-13T13:01:19;20.73;;;6.30;;
22715;SDS011;11525;51.152;4.456;2023-10-13T13:03:49;17.10;;;6.53;;
22715;SDS011;11525;51.152;4.456;2023-10-13T13:06:19;19.33;;;6.25;;
22715;SDS011;11525;51.152;4.456;2023-10-13T13:08:52;15.02;;;6.22;;
22715;SDS011;11525;51.152;4.456;2023-10-13T13:11:18;19.40;;;6.43;;
22715;SDS011;11525;51.152;4.456;2023-10-13T13:13:45;21.33;;;6.63;;
22715;SDS011;11525;51.152;4.456;2023-10-13T13:16:11;23.48;;;7.28;;
22715;SDS011;11525;51.152;4.456;2023-10-13T13:18:43;18.85;;;7.05;;
22715;SDS011;11525;51.152;4.456;2023-10-13T13:21:09;19.67;;;7.50;;
22715;SDS011;11525;51.152;4.456;2023-10-13T13:23:45;20.58;;;7.30;;
22715;SDS011;11525;51.152;4.456;2023-10-13T13:26:11;13.30;;;6.32;;
22715;SDS011;11525;51.152;4.456;2023-10-13T13:28:43;13.70;;;6.18;;
22715;SDS011;11525;51.152;4.456;2023-10-13T13:31:10;24.27;;;6.53;;
22715;SDS011;11525;51.152;4.456;2023-10-13T13:33:40;23.30;;;7.68;;
22715;SDS011;11525;51.152;4.456;2023-10-13T13:36:08;15.55;;;6.68;;
22715;SDS011;11525;51.152;4.456;2023-10-13T13:38:39;24.63;;;6.75;;
22715;SDS011;11525;51.152;4.456;2023-10-13T13:41:11;11.98;;;6.50;;
22715;SDS011;11525;51.152;4.456;2023-10-13T13:43:40;24.83;;;6.25;;
22715;SDS011;11525;51.152;4.456;2023-10-13T13:46:16;24.40;;;6.65;;
22715;SDS011;11525;51.152;4.456;2023-10-13T13:48:42;16.73;;;6.40;;
22715;SDS011;11525;51.152;4.456;2023-10-13T13:51:08;23.00;;;7.13;;
22715;SDS011;11525;51.152;4.456;2023-10-13T13:53:41;16.05;;;6.15;;
22715;SDS011;11525;51.152;4.456;2023-10-13T13:56:13;16.77;;;6.50;;
22715;SDS011;11525;51.152;4.456;2023-10-13T13:58:41;16.05;;;7.07;;
22715;SDS011;11525;51.152;4.456;2023-10-13T14:01:11;14.25;;;5.88;;
22715;SDS011;11525;51.152;4.456;2023-10-13T14:03:41;14.45;;;6.63;;
22715;SDS011;11525;51.152;4.456;2023-10-13T14:06:13;15.88;;;6.18;;
22715;SDS011;11525;51.152;4.456;2023-10-13T14:08:48;15.32;;;6.32;;
22715;SDS011;11525;51.152;4.456;2023-10-13T14:11:16;21.33;;;6.70;;
22715;SDS011;11525;51.152;4.456;2023-10-13T14:14:01;18.70;;;6.55;;
22715;SDS011;11525;51.152;4.456;2023-10-13T14:16:29;13.90;;;6.35;;
22715;SDS011;11525;51.152;4.456;2023-10-13T14:18:58;12.68;;;6.07;;
22715;SDS011;11525;51.152;4.456;2023-10-13T14:21:26;16.38;;;6.55;;
22715;SDS011;11525;51.152;4.456;2023-10-13T14:23:53;20.92;;;6.85;;
22715;SDS011;11525;51.152;4.456;2023-10-13T14:26:19;16.75;;;7.25;;
22715;SDS011;11525;51.152;4.456;2023-10-13T14:28:48;16.73;;;5.97;;
22715;SDS011;11525;51.152;4.456;2023-10-13T14:31:28;16.00;;;6.13;;
22715;SDS011;11525;51.152;4.456;2023-10-13T14:33:55;17.85;;;6.80;;
22715;SDS011;11525;51.152;4.456;2023-10-13T14:36:22;16.20;;;5.85;;
22715;SDS011;11525;51.152;4.456;2023-10-13T14:38:48;12.10;;;6.50;;
22715;SDS011;11525;51.152;4.456;2023-10-13T14:41:17;12.98;;;6.00;;
22715;SDS011;11525;51.152;4.456;2023-10-13T14:43:43;13.88;;;6.03;;
22715;SDS011;11525;51.152;4.456;2023-10-13T14:46:15;16.02;;;6.22;;
22715;SDS011;11525;51.152;4.456;2023-10-13T14:48:42;17.88;;;6.93;;
22715;SDS011;11525;51.152;4.456;2023-10-13T14:51:08;22.60;;;6.10;;
22715;SDS011;11525;51.152;4.456;2023-10-13T14:53:38;15.95;;;6.40;;
22715;SDS011;11525;51.152;4.456;2023-10-13T14:56:10;12.35;;;6.20;;
22715;SDS011;11525;51.152;4.456;2023-10-13T14:58:36;17.63;;;6.95;;
22715;SDS011;11525;51.152;4.456;2023-10-13T15:01:17;17.33;;;6.18;;
22715;SDS011;11525;51.152;4.456;2023-10-13T15:03:45;16.70;;;7.13;;
22715;SDS011;11525;51.152;4.456;2023-10-13T15:06:18;20.35;;;7.25;;
22715;SDS011;11525;51.152;4.456;2023-10-13T15:08:46;14.43;;;6.47;;
22715;SDS011;11525;51.152;4.456;2023-10-13T15:11:15;22.52;;;7.45;;
22715;SDS011;11525;51.152;4.456;2023-10-13T15:13:43;17.13;;;7.25;;
22715;SDS011;11525;51.152;4.456;2023-10-13T15:16:15;15.23;;;6.80;;
22715;SDS011;11525;51.152;4.456;2023-10-13T15:18:45;17.10;;;7.18;;
22715;SDS011;11525;51.152;4.456;2023-10-13T15:21:21;13.95;;;7.00;;
22715;SDS011;11525;51.152;4.456;2023-10-13T15:24:00;15.05;;;6.63;;
22715;SDS011;11525;51.152;4.456;2023-10-13T15:26:29;19.98;;;7.78;;
22715;SDS011;11525;51.152;4.456;2023-10-13T15:28:57;15.00;;;6.53;;
22715;SDS011;11525;51.152;4.456;2023-10-13T15:31:23;19.00;;;7.70;;
22715;SDS011;11525;51.152;4.456;2023-10-13T15:34:02;15.00;;;7.05;;
22715;SDS011;11525;51.152;4.456;2023-10-13T15:36:34;16.02;;;7.28;;
22715;SDS011;11525;51.152;4.456;2023-10-13T15:39:00;14.68;;;7.47;;
22715;SDS011;11525;51.152;4.456;2023-10-13T15:41:27;22.30;;;8.00;;